createdAt,value
2023-02-11T00:01:32.930Z,33.20
2023-02-11T00:04:02.381Z,35.10
2023-02-11T00:06:32.600Z,34.10
2023-02-11T00:09:01.872Z,34.60
2023-02-11T00:11:30.734Z,33.60
2023-02-11T00:14:05.461Z,32.30
2023-02-11T00:16:34.175Z,32.90
2023-02-11T00:19:05.663Z,35.20
2023-02-11T00:21:35.922Z,36.10
2023-02-11T00:24:04.322Z,32.10
2023-02-11T00:26:35.458Z,33.90
2023-02-11T00:29:04.684Z,35.50
2023-02-11T00:31:33.490Z,35.30
2023-02-11T00:34:01.795Z,34.00
2023-02-11T00:36:30.946Z,35.70
2023-02-11T00:39:00.205Z,36.20
2023-02-11T00:41:29.714Z,34.80
2023-02-11T00:44:01.103Z,32.50
2023-02-11T00:46:29.424Z,34.40
2023-02-11T00:48:58.061Z,34.90
2023-02-11T00:51:29.507Z,33.10
2023-02-11T00:53:57.544Z,35.40
2023-02-11T00:56:25.617Z,35.60
2023-02-11T00:58:54.329Z,33.90
2023-02-11T01:01:22.444Z,36.50
2023-02-11T01:03:50.927Z,34.30
2023-02-11T01:06:19.260Z,37.10
2023-02-11T01:08:47.292Z,34.80
2023-02-11T01:11:18.657Z,37.60
2023-02-11T01:13:48.853Z,36.10
2023-02-11T01:16:18.087Z,34.80
2023-02-11T01:18:47.428Z,38.00
2023-02-11T01:21:16.332Z,33.90
2023-02-11T01:23:44.582Z,34.80
2023-02-11T01:26:13.427Z,37.00
2023-02-11T01:28:41.471Z,36.40
2023-02-11T01:31:09.584Z,34.40
2023-02-11T01:33:37.667Z,36.40
2023-02-11T01:36:08.271Z,35.90
2023-02-11T01:38:36.969Z,36.50
2023-02-11T01:41:08.359Z,35.00
2023-02-11T01:43:43.516Z,35.40
2023-02-11T01:46:28.157Z,37.30
2023-02-11T01:49:02.783Z,35.80
2023-02-11T01:51:38.999Z,38.00
2023-02-11T01:54:39.687Z,37.10
2023-02-11T01:57:25.077Z,33.80
2023-02-11T02:00:24.312Z,34.80
2023-02-11T02:02:55.404Z,36.50
2023-02-11T02:05:35.047Z,36.40
2023-02-11T02:08:03.143Z,37.30
2023-02-11T02:10:31.706Z,36.10
2023-02-11T02:12:59.773Z,37.40
2023-02-11T02:15:34.655Z,36.60
2023-02-11T02:18:09.854Z,38.30
2023-02-11T02:20:50.753Z,37.70
2023-02-11T02:23:39.058Z,38.90
2023-02-11T02:26:26.174Z,40.20
2023-02-11T02:28:57.003Z,37.20
2023-02-11T02:31:39.962Z,38.30
2023-02-11T02:34:20.798Z,38.70
2023-02-11T02:36:58.248Z,39.60
2023-02-11T02:39:31.825Z,39.80
2023-02-11T02:42:00.033Z,39.80
2023-02-11T02:44:29.204Z,38.20
2023-02-11T02:46:58.434Z,40.10
2023-02-11T02:49:26.449Z,38.50
2023-02-11T02:52:19.433Z,38.00
2023-02-11T02:55:01.913Z,40.20
2023-02-11T02:57:45.684Z,37.20
2023-02-11T03:00:25.755Z,43.70
2023-02-11T03:03:18.918Z,37.40
2023-02-11T03:05:57.507Z,38.30
2023-02-11T03:08:33.585Z,37.50
2023-02-11T03:11:03.161Z,38.40
2023-02-11T03:13:36.024Z,37.20
2023-02-11T03:16:28.145Z,37.80
2023-02-11T03:19:21.257Z,35.40
2023-02-11T03:21:52.110Z,36.90
2023-02-11T03:24:36.990Z,39.00
2023-02-11T03:27:20.621Z,37.30
2023-02-11T03:30:05.693Z,36.70
2023-02-11T03:32:40.276Z,35.80
2023-02-11T03:35:23.441Z,35.10
2023-02-11T03:38:00.621Z,37.10
2023-02-11T03:40:32.794Z,38.30
2023-02-11T03:43:07.361Z,35.20
2023-02-11T03:45:37.470Z,37.60
2023-02-11T03:48:14.712Z,35.00
2023-02-11T03:50:45.739Z,35.70
2023-02-11T03:53:14.973Z,37.90
2023-02-11T03:55:44.382Z,35.70
2023-02-11T03:58:12.452Z,37.10
2023-02-11T04:00:42.689Z,34.80
2023-02-11T04:03:11.648Z,35.80
2023-02-11T04:05:40.733Z,35.30
2023-02-11T04:08:08.903Z,34.40
2023-02-11T04:10:37.188Z,34.50
2023-02-11T04:13:05.137Z,35.30
2023-02-11T04:15:33.632Z,33.30
2023-02-11T04:18:03.545Z,33.10
2023-02-11T04:20:31.584Z,34.70
2023-02-11T04:22:59.679Z,34.90
2023-02-11T04:25:27.830Z,33.80
2023-02-11T04:27:55.950Z,35.80
2023-02-11T04:30:25.335Z,32.80
2023-02-11T04:32:54.520Z,32.80
2023-02-11T04:35:22.629Z,32.10
2023-02-11T04:37:50.662Z,33.20
2023-02-11T04:40:18.852Z,32.80
2023-02-11T04:42:46.931Z,32.40
2023-02-11T04:45:15.006Z,34.20
2023-02-11T04:47:43.055Z,32.20
2023-02-11T04:50:11.222Z,31.00
2023-02-11T04:52:39.312Z,32.60
2023-02-11T04:55:07.577Z,32.30
2023-02-11T04:57:35.612Z,31.90
2023-02-11T05:00:04.243Z,31.20
2023-02-11T05:02:32.465Z,34.40
2023-02-11T05:05:00.581Z,32.90
2023-02-11T05:07:28.737Z,31.80
2023-02-11T05:09:56.912Z,29.80
2023-02-11T05:12:24.981Z,34.70
2023-02-11T05:14:53.053Z,34.30
2023-02-11T05:17:21.029Z,31.60
2023-02-11T05:19:49.086Z,32.70
2023-02-11T05:22:17.037Z,34.30
2023-02-11T05:24:45.030Z,33.10
2023-02-11T05:27:13.307Z,32.90
2023-02-11T05:29:41.468Z,33.10
2023-02-11T05:32:09.574Z,32.60
2023-02-11T05:34:37.821Z,36.50
2023-02-11T05:37:05.920Z,34.80
2023-02-11T05:39:33.822Z,30.40
2023-02-11T05:42:01.806Z,29.80
2023-02-11T05:44:29.821Z,35.70
2023-02-11T05:46:57.832Z,33.00
2023-02-11T05:49:25.934Z,32.70
2023-02-11T05:51:53.902Z,35.30
2023-02-11T05:54:22.114Z,33.10
2023-02-11T05:56:50.225Z,34.10
2023-02-11T05:59:18.418Z,36.30
2023-02-11T06:01:46.487Z,34.60
2023-02-11T06:04:14.503Z,35.80
2023-02-11T06:06:42.558Z,33.60
2023-02-11T06:09:11.935Z,34.40
2023-02-11T06:11:39.897Z,33.90
2023-02-11T06:14:08.224Z,36.30
2023-02-11T06:16:36.389Z,35.00
2023-02-11T06:19:04.527Z,35.70
2023-02-11T06:21:43.499Z,36.50
2023-02-11T06:24:12.870Z,35.00
2023-02-11T06:26:40.943Z,35.70
2023-02-11T06:29:09.080Z,31.20
2023-02-11T06:31:37.994Z,33.80
2023-02-11T06:34:06.269Z,34.70
2023-02-11T06:36:34.628Z,34.00
2023-02-11T06:39:03.474Z,33.80
2023-02-11T06:41:31.500Z,32.60
2023-02-11T06:44:00.091Z,32.10
2023-02-11T06:46:28.149Z,32.50
2023-02-11T06:48:56.624Z,35.50
2023-02-11T06:51:24.798Z,35.80
2023-02-11T06:53:52.761Z,33.20
2023-02-11T06:56:27.552Z,33.00
2023-02-11T06:58:56.279Z,33.60
2023-02-11T07:01:25.666Z,35.20
2023-02-11T07:03:54.769Z,35.60
2023-02-11T07:06:27.872Z,31.40
2023-02-11T07:08:56.751Z,33.90
2023-02-11T07:11:28.197Z,30.90
2023-02-11T07:14:01.354Z,31.30
2023-02-11T07:16:30.011Z,31.30
2023-02-11T07:18:58.416Z,31.30
2023-02-11T07:21:26.537Z,30.80
2023-02-11T07:23:55.025Z,29.10
2023-02-11T07:26:24.510Z,29.90
2023-02-11T07:28:53.300Z,32.40
2023-02-11T07:31:27.903Z,32.70
2023-02-11T07:34:00.077Z,32.50
2023-02-11T07:36:30.573Z,30.80
2023-02-11T07:38:58.901Z,30.90
2023-02-11T07:41:27.208Z,31.20
2023-02-11T07:43:55.968Z,28.80
2023-02-11T07:46:26.460Z,29.90
2023-02-11T07:48:55.580Z,29.30
2023-02-11T07:51:26.718Z,28.10
2023-02-11T07:53:56.127Z,28.70
2023-02-11T07:56:24.430Z,27.80
2023-02-11T07:58:52.987Z,27.50
2023-02-11T08:01:26.281Z,27.00
2023-02-11T08:03:58.966Z,26.80
2023-02-11T08:06:30.259Z,27.20
2023-02-11T08:09:03.120Z,25.40
2023-02-11T08:11:31.476Z,26.90
2023-02-11T08:13:59.524Z,24.90
2023-02-11T08:16:30.144Z,25.70
2023-02-11T08:19:01.203Z,27.40
2023-02-11T08:21:29.505Z,25.40
2023-02-11T08:23:57.688Z,25.40
2023-02-11T08:26:29.388Z,24.70
2023-02-11T08:28:59.079Z,24.80
2023-02-11T08:31:39.297Z,23.90
2023-02-11T08:34:08.072Z,24.30
2023-02-11T08:36:38.364Z,25.20
2023-02-11T08:39:19.186Z,24.40
2023-02-11T08:41:53.779Z,24.00
2023-02-11T08:44:23.075Z,23.10
2023-02-11T08:46:51.851Z,23.00
2023-02-11T08:49:20.280Z,22.70
2023-02-11T08:51:49.209Z,22.40
2023-02-11T08:54:17.279Z,22.50
2023-02-11T08:56:46.179Z,22.80
2023-02-11T08:59:15.657Z,22.30
2023-02-11T09:01:44.517Z,22.60
2023-02-11T09:04:13.153Z,23.30
2023-02-11T09:06:41.494Z,23.40
2023-02-11T09:09:13.750Z,22.50
2023-02-11T09:11:43.177Z,23.00
2023-02-11T09:14:20.518Z,23.60
2023-02-11T09:16:49.112Z,23.30
2023-02-11T09:19:18.235Z,22.80
2023-02-11T09:21:46.865Z,23.10
2023-02-11T09:24:15.177Z,22.90
2023-02-11T09:26:43.613Z,22.30
2023-02-11T09:29:11.684Z,23.20
2023-02-11T09:31:39.837Z,23.70
2023-02-11T09:34:08.015Z,23.40
2023-02-11T09:36:38.624Z,23.70
2023-02-11T09:39:09.992Z,23.00
2023-02-11T09:42:19.924Z,22.70
2023-02-11T09:44:48.100Z,23.30
2023-02-11T09:47:27.058Z,25.00
2023-02-11T09:50:02.499Z,26.60
2023-02-11T09:52:44.069Z,24.20
2023-02-11T09:55:21.974Z,23.80
2023-02-11T09:57:50.134Z,23.50
2023-02-11T10:00:43.334Z,23.40
2023-02-11T10:03:21.836Z,22.90
2023-02-11T10:05:52.566Z,23.10
2023-02-11T10:08:47.502Z,22.90
2023-02-11T10:11:31.194Z,23.00
2023-02-11T10:14:29.164Z,23.00
2023-02-11T10:17:28.057Z,22.40
2023-02-11T10:20:18.067Z,23.10
2023-02-11T10:22:50.143Z,22.60
2023-02-11T10:25:43.659Z,23.10
2023-02-11T10:28:17.150Z,22.30
2023-02-11T10:30:59.588Z,22.30
2023-02-11T10:33:36.937Z,21.70
2023-02-11T10:36:05.756Z,22.00
2023-02-11T10:38:34.103Z,22.50
2023-02-11T10:41:02.325Z,22.30
2023-02-11T10:43:32.132Z,21.80
2023-02-11T10:46:02.938Z,22.00
2023-02-11T10:48:41.976Z,22.70
2023-02-11T10:51:19.062Z,22.30
2023-02-11T10:54:19.483Z,21.40
2023-02-11T10:56:58.569Z,20.70
2023-02-11T10:59:30.996Z,20.90
2023-02-11T11:02:08.143Z,19.40
2023-02-11T11:04:45.821Z,19.10
2023-02-11T11:07:27.556Z,18.30
2023-02-11T11:10:00.382Z,19.10
2023-02-11T11:12:28.304Z,17.50
2023-02-11T11:15:01.931Z,14.90
2023-02-11T11:17:29.994Z,13.00
2023-02-11T11:20:35.675Z,12.80
2023-02-11T11:23:09.636Z,12.40
2023-02-11T11:25:41.935Z,12.80
2023-02-11T11:28:21.865Z,12.50
2023-02-11T11:30:50.855Z,12.30
2023-02-11T11:33:23.026Z,14.10
2023-02-11T11:36:11.640Z,14.30
2023-02-11T11:38:58.888Z,16.50
2023-02-11T11:41:30.879Z,20.50
2023-02-11T11:44:00.471Z,20.90
2023-02-11T11:46:32.064Z,16.30
2023-02-11T11:49:36.010Z,18.30
2023-02-11T11:52:19.678Z,12.90
2023-02-11T11:54:56.008Z,14.40
2023-02-11T11:57:28.863Z,16.20
2023-02-11T11:59:58.359Z,16.20
2023-02-11T12:03:08.509Z,19.20
2023-02-11T12:05:47.070Z,20.90
2023-02-11T12:08:46.180Z,21.30
2023-02-11T12:11:16.913Z,17.80
2023-02-11T12:14:03.719Z,16.40
2023-02-11T12:16:50.565Z,15.90
2023-02-11T12:19:45.754Z,15.20
2023-02-11T12:22:34.625Z,21.50
2023-02-11T12:25:05.227Z,17.00
2023-02-11T12:28:01.990Z,21.50
2023-02-11T12:30:54.526Z,25.10
2023-02-11T12:33:48.477Z,22.60
2023-02-11T12:36:41.343Z,16.50
2023-02-11T12:39:12.086Z,19.40
2023-02-11T12:42:34.512Z,19.00
2023-02-11T12:45:11.524Z,19.20
2023-02-11T12:48:05.783Z,17.90
2023-02-11T12:50:49.503Z,21.90
2023-02-11T12:53:49.638Z,19.20
2023-02-11T12:57:05.629Z,18.20
2023-02-11T12:59:58.943Z,21.40
2023-02-11T13:02:41.927Z,17.80
2023-02-11T13:05:49.594Z,18.80
2023-02-11T13:08:35.490Z,15.00
2023-02-11T13:11:16.177Z,18.30
2023-02-11T13:13:53.245Z,20.60
2023-02-11T13:16:31.119Z,18.90
2023-02-11T13:19:07.319Z,19.30
2023-02-11T13:21:54.420Z,18.20
2023-02-11T13:24:41.039Z,18.10
2023-02-11T13:27:27.430Z,20.30
2023-02-11T13:30:04.420Z,18.00
2023-02-11T13:32:54.238Z,17.30
2023-02-11T13:35:40.237Z,21.40
2023-02-11T13:38:17.365Z,20.20
2023-02-11T13:40:45.956Z,20.20
2023-02-11T13:43:26.125Z,19.30
2023-02-11T13:46:10.436Z,19.30
2023-02-11T13:48:46.914Z,23.60
2023-02-11T13:51:34.537Z,23.30
2023-02-11T13:54:03.950Z,20.50
2023-02-11T13:56:38.079Z,22.10
2023-02-11T13:59:27.493Z,20.70
2023-02-11T14:02:39.776Z,20.50
2023-02-11T14:05:26.125Z,21.30
2023-02-11T14:08:28.184Z,17.50
2023-02-11T14:11:01.022Z,17.70
2023-02-11T14:13:31.917Z,14.00
2023-02-11T14:16:36.522Z,17.50
2023-02-11T14:19:06.519Z,20.20
2023-02-11T14:21:38.251Z,17.40
2023-02-11T14:24:07.245Z,15.20
2023-02-11T14:26:58.628Z,14.80
2023-02-11T14:29:38.703Z,14.30
2023-02-11T14:32:41.073Z,17.30
2023-02-11T14:35:20.897Z,17.20
2023-02-11T14:37:56.672Z,16.90
2023-02-11T14:40:49.295Z,16.90
2023-02-11T14:43:24.438Z,17.20
2023-02-11T14:45:55.946Z,16.90
2023-02-11T14:48:35.165Z,18.10
2023-02-11T14:51:25.875Z,18.60
2023-02-11T14:53:59.393Z,15.60
2023-02-11T14:56:31.261Z,19.00
2023-02-11T14:58:59.240Z,17.20
2023-02-11T15:01:35.849Z,19.60
2023-02-11T15:04:06.510Z,17.70
2023-02-11T15:06:39.454Z,18.00
2023-02-11T15:09:18.634Z,16.30
2023-02-11T15:11:51.297Z,19.10
2023-02-11T15:14:28.496Z,15.60
2023-02-11T15:17:09.752Z,18.50
2023-02-11T15:19:45.020Z,17.20
2023-02-11T15:22:34.393Z,19.00
2023-02-11T15:25:16.816Z,15.40
2023-02-11T15:27:50.202Z,18.80
2023-02-11T15:30:25.022Z,15.50
2023-02-11T15:33:00.179Z,16.90
2023-02-11T15:35:36.830Z,13.90
2023-02-11T15:38:05.815Z,16.50
2023-02-11T15:40:36.573Z,16.00
2023-02-11T15:43:07.771Z,13.50
2023-02-11T15:45:40.316Z,14.20
2023-02-11T15:48:20.286Z,15.70
2023-02-11T15:50:54.451Z,18.10
2023-02-11T15:53:28.707Z,17.50
2023-02-11T15:56:25.610Z,16.00
2023-02-11T15:58:56.114Z,16.70
2023-02-11T16:01:34.860Z,17.10
2023-02-11T16:04:05.486Z,20.20
2023-02-11T16:06:42.168Z,20.50
2023-02-11T16:09:12.766Z,20.10
2023-02-11T16:11:46.521Z,17.60
2023-02-11T16:14:42.393Z,19.10
2023-02-11T16:17:25.034Z,20.20
2023-02-11T16:19:54.663Z,19.60
2023-02-11T16:22:27.645Z,21.00
2023-02-11T16:24:59.628Z,18.70
2023-02-11T16:27:34.152Z,18.60
2023-02-11T16:30:02.894Z,20.70
2023-02-11T16:32:31.643Z,17.40
2023-02-11T16:35:01.499Z,11.00
2023-02-11T16:37:29.562Z,10.00
2023-02-11T16:39:58.363Z,9.30
2023-02-11T16:42:26.477Z,5.80
2023-02-11T16:44:54.486Z,7.40
2023-02-11T16:47:27.891Z,5.50
2023-02-11T16:49:56.300Z,6.90
2023-02-11T16:52:24.729Z,6.90
2023-02-11T16:54:53.619Z,6.20
2023-02-11T16:57:24.784Z,7.00
2023-02-11T16:59:53.379Z,6.10
2023-02-11T17:02:34.023Z,5.40
2023-02-11T17:05:05.353Z,7.10
2023-02-11T17:07:33.860Z,5.80
2023-02-11T17:10:02.274Z,4.60
2023-02-11T17:12:30.298Z,5.40
2023-02-11T17:14:58.279Z,5.90
2023-02-11T17:17:26.329Z,4.90
2023-02-11T17:19:54.265Z,5.40
2023-02-11T17:22:22.364Z,5.50
2023-02-11T17:24:51.065Z,5.70
2023-02-11T17:27:19.038Z,5.20
2023-02-11T17:29:47.202Z,3.80
2023-02-11T17:32:15.253Z,5.00
2023-02-11T17:34:43.341Z,4.30
2023-02-11T17:37:11.334Z,4.60
2023-02-11T17:39:40.075Z,4.30
2023-02-11T17:42:08.918Z,5.30
2023-02-11T17:44:37.457Z,4.90
2023-02-11T17:47:05.528Z,4.10
2023-02-11T17:49:33.721Z,4.00
2023-02-11T17:52:01.890Z,3.90
2023-02-11T17:54:30.085Z,4.80
2023-02-11T17:56:58.640Z,5.10
2023-02-11T17:59:29.976Z,4.60
2023-02-11T18:01:58.160Z,4.70
2023-02-11T18:04:26.304Z,3.60
2023-02-11T18:06:54.394Z,3.90
2023-02-11T18:09:22.417Z,4.30
2023-02-11T18:11:52.643Z,4.30
2023-02-11T18:14:23.015Z,3.40
2023-02-11T18:16:52.682Z,3.60
2023-02-11T18:19:20.891Z,4.20
2023-02-11T18:21:50.521Z,3.60
2023-02-11T18:24:18.985Z,2.70
2023-02-11T18:26:47.052Z,4.30
2023-02-11T18:29:15.120Z,5.70
2023-02-11T18:31:43.148Z,5.30
2023-02-11T18:34:11.468Z,4.50
2023-02-11T18:36:39.743Z,4.70
2023-02-11T18:39:08.039Z,6.70
2023-02-11T18:41:36.037Z,4.60
2023-02-11T18:44:05.302Z,6.90
2023-02-11T18:46:33.310Z,6.20
2023-02-11T18:49:02.052Z,6.30
2023-02-11T18:51:32.572Z,5.30
2023-02-11T18:54:01.508Z,5.50
2023-02-11T18:56:29.611Z,5.30
2023-02-11T18:58:58.385Z,5.10
2023-02-11T19:01:28.071Z,6.60
2023-02-11T19:03:58.616Z,4.90
2023-02-11T19:06:29.046Z,4.50
2023-02-11T19:09:00.202Z,5.70
2023-02-11T19:11:49.986Z,7.00
2023-02-11T19:14:22.173Z,5.70
2023-02-11T19:16:52.975Z,5.80
2023-02-11T19:19:25.711Z,5.40
2023-02-11T19:21:54.847Z,4.40
2023-02-11T19:24:24.252Z,6.20
2023-02-11T19:26:57.066Z,4.80
2023-02-11T19:29:25.617Z,7.30
2023-02-11T19:31:54.475Z,6.70
2023-02-11T19:34:22.543Z,8.80
2023-02-11T19:36:51.052Z,7.40
2023-02-11T19:39:19.255Z,7.90
2023-02-11T19:41:47.434Z,7.60
2023-02-11T19:44:16.293Z,9.40
2023-02-11T19:46:46.107Z,8.00
2023-02-11T19:49:17.896Z,7.10
2023-02-11T19:51:46.835Z,7.70
2023-02-11T19:54:14.846Z,6.90
2023-02-11T19:56:44.883Z,7.60
2023-02-11T19:59:13.967Z,7.10
2023-02-11T20:01:42.391Z,7.90
2023-02-11T20:04:10.917Z,8.90
2023-02-11T20:06:38.986Z,8.30
2023-02-11T20:09:11.322Z,8.10
2023-02-11T20:11:40.156Z,6.20
2023-02-11T20:14:10.686Z,6.60
2023-02-11T20:16:48.282Z,7.00
2023-02-11T20:19:20.562Z,5.70
2023-02-11T20:21:52.253Z,5.20
2023-02-11T20:24:21.732Z,5.10
2023-02-11T20:26:49.902Z,4.10
2023-02-11T20:29:18.623Z,6.40
2023-02-11T20:31:46.994Z,5.40
2023-02-11T20:34:17.760Z,5.70
2023-02-11T20:36:52.126Z,6.90
2023-02-11T20:39:22.560Z,4.00
2023-02-11T20:41:52.576Z,4.80
2023-02-11T20:44:24.446Z,7.40
2023-02-11T20:46:54.566Z,5.50
2023-02-11T20:49:24.977Z,4.50
2023-02-11T20:51:54.046Z,3.40
2023-02-11T20:54:23.571Z,5.70
2023-02-11T20:56:53.893Z,3.70
2023-02-11T20:59:24.682Z,5.10
2023-02-11T21:01:55.706Z,4.70
2023-02-11T21:04:30.478Z,5.70
2023-02-11T21:07:01.635Z,5.90
2023-02-11T21:09:33.357Z,6.30
2023-02-11T21:12:01.993Z,9.80
2023-02-11T21:14:30.448Z,9.40
2023-02-11T21:16:58.999Z,7.90
2023-02-11T21:19:27.351Z,8.80
2023-02-11T21:21:57.412Z,9.00
2023-02-11T21:24:25.674Z,7.80
2023-02-11T21:26:53.835Z,6.80
2023-02-11T21:29:22.388Z,5.60
2023-02-11T21:31:51.508Z,6.60
2023-02-11T21:34:20.280Z,5.50
2023-02-11T21:36:51.208Z,6.00
2023-02-11T21:39:20.491Z,5.10
2023-02-11T21:41:48.770Z,7.40
2023-02-11T21:44:16.846Z,8.30
2023-02-11T21:46:44.868Z,7.10
2023-02-11T21:49:12.992Z,8.00
2023-02-11T21:51:40.953Z,8.40
2023-02-11T21:54:11.303Z,6.00
2023-02-11T21:56:39.300Z,5.90
2023-02-11T21:59:07.461Z,5.50
2023-02-11T22:01:36.022Z,7.40
2023-02-11T22:04:04.303Z,6.60
2023-02-11T22:06:34.637Z,7.30
2023-02-11T22:09:05.674Z,6.10
2023-02-11T22:11:33.692Z,7.00
2023-02-11T22:14:01.750Z,6.70
2023-02-11T22:16:30.848Z,6.60
2023-02-11T22:18:59.779Z,4.90
2023-02-11T22:21:28.193Z,7.60
2023-02-11T22:23:56.589Z,7.20
2023-02-11T22:26:26.590Z,9.00
2023-02-11T22:28:55.565Z,8.00
2023-02-11T22:31:30.169Z,9.10
2023-02-11T22:33:59.096Z,6.00
2023-02-11T22:36:30.115Z,5.00
2023-02-11T22:39:08.386Z,6.10
2023-02-11T22:41:38.452Z,5.20
2023-02-11T22:44:06.766Z,6.20
2023-02-11T22:46:35.559Z,9.70
2023-02-11T22:49:05.291Z,9.20
2023-02-11T22:51:33.898Z,7.60
2023-02-11T22:54:05.039Z,8.50
2023-02-11T22:56:35.020Z,6.30
2023-02-11T22:59:06.305Z,10.90
2023-02-11T23:01:35.167Z,12.70
2023-02-11T23:04:05.776Z,10.00
2023-02-11T23:06:34.807Z,7.30
2023-02-11T23:09:04.786Z,8.00
2023-02-11T23:11:33.601Z,5.70
2023-02-11T23:14:02.594Z,3.80
2023-02-11T23:16:33.059Z,5.60
2023-02-11T23:19:05.205Z,6.90
2023-02-11T23:21:35.889Z,7.20
2023-02-11T23:24:08.174Z,6.50
2023-02-11T23:26:39.405Z,5.10
2023-02-11T23:29:08.153Z,6.40
2023-02-11T23:31:39.999Z,6.30
2023-02-11T23:34:08.870Z,5.70
2023-02-11T23:36:37.686Z,5.80
2023-02-11T23:39:06.099Z,7.00
2023-02-11T23:41:34.152Z,4.60
2023-02-11T23:44:02.237Z,4.20
2023-02-11T23:46:30.295Z,4.90
2023-02-11T23:48:58.329Z,4.60
2023-02-11T23:51:26.292Z,3.80
2023-02-11T23:53:56.416Z,4.00
2023-02-11T23:56:27.835Z,2.50
2023-02-11T23:58:58.765Z,5.70
